Date,TemperatureHighF,TemperatureAvgF,TemperatureLowF,DewpointHighF,DewpointAvgF,DewpointLowF,HumidityHigh,HumidityAvg,HumidityLow,PressureMaxIn,PressureMinIn,WindSpeedMaxMPH,WindSpeedAvgMPH,GustSpeedMaxMPH,PrecipitationSumIn
2013-1-1,32,27,19,31,24,14,95,87,77,30.10,30.00,7,2,12,0.05
2013-1-2,24,20,10,18,15,8,92,82,75,30.26,30.08,7,2,12,0.00
2013-1-3,31,20,6,25,16,3,95,84,68,30.25,30.13,16,4,23,0.00
2013-1-4,31,28,25,24,21,19,86,75,63,30.25,30.10,19,7,28,0.00
2013-1-5,35,30,25,28,24,20,86,79,70,30.38,30.12,10,3,14,0.00
2013-1-6,37,34,32,33,30,27,97,85,78,30.21,29.95,10,4,17,0.02
2013-1-7,35,32,27,30,28,24,96,87,74,30.44,30.22,11,4,20,0.02
2013-1-8,43,32,22,30,26,20,94,79,55,30.33,30.25,10,3,15,0.00
2013-1-9,48,40,34,39,33,29,91,74,57,30.47,30.16,13,5,22,0.06
2013-1-10,42,35,26,32,29,25,98,81,63,30.60,30.27,6,1,12,0.00
2013-1-11,52,46,40,51,41,28,99,84,60,30.26,29.86,12,4,20,0.50
2013-1-12,60,55,48,56,53,47,100,93,82,30.02,29.87,11,4,20,0.00
2013-1-13,66,60,42,59,56,41,100,87,75,29.92,29.73,14,5,23,0.17
2013-1-14,42,32,26,40,28,23,96,84,72,30.42,29.93,12,3,20,0.01
2013-1-15,32,29,25,26,24,22,93,79,67,30.42,30.11,6,1,12,0.00
2013-1-16,36,32,30,30,27,25,90,82,67,30.11,29.88,10,2,18,0.00
2013-1-17,36,34,27,31,27,23,89,78,68,30.20,29.99,10,3,19,0.00
2013-1-18,34,26,20,23,18,12,86,69,58,30.49,30.16,15,6,23,0.00
2013-1-19,51,43,34,31,26,21,61,51,38,30.16,29.72,18,8,31,0.00
2013-1-20,47,31,23,34,20,12,79,64,45,30.15,29.67,27,8,43,0.00
2013-1-21,23,19,12,18,11,5,89,70,61,30.12,29.93,15,6,26,0.00
2013-1-22,12,9,7,6,3,1,89,79,68,30.31,30.08,16,6,24,0.00
2013-1-23,16,11,5,13,5,0,94,78,63,30.32,30.12,12,4,20,0.02
2013-1-24,22,12,5,15,7,2,94,80,47,30.60,30.11,9,1,15,0.04
2013-1-25,19,15,8,14,11,5,91,85,76,30.56,30.07,8,1,14,0.10
2013-1-26,28,22,17,22,19,14,94,89,70,30.47,30.11,12,2,16,0.01
2013-1-27,30,22,8,26,16,6,95,80,63,30.56,30.30,10,2,13,0.00
2013-1-28,46,39,28,46,38,26,100,97,87,30.31,29.95,13,4,20,0.05
2013-1-29,60,51,39,56,50,39,100,96,80,30.03,29.68,12,4,18,0.14
2013-1-30,64,58,39,59,53,35,97,84,73,29.68,29.12,22,8,37,0.27
2013-1-31,38,27,19,36,21,13,97,79,64,29.86,29.23,20,10,33,0.03
2013-2-1,19,16,14,15,11,7,93,80,68,30.33,29.84,16,6,25,0.02
2013-2-2,22,17,12,21,14,6,95,87,73,30.32,29.99,8,3,13,0.00
2013-2-3,23,20,18,21,16,13,96,84,67,30.02,29.87,12,3,20,0.18
2013-2-4,26,21,17,24,18,14,95,89,82,30.07,29.89,10,2,17,0.05
2013-2-5,28,25,21,25,22,20,100,89,79,29.95,29.85,7,1,9,0.00
2013-2-6,31,26,17,26,19,12,96,76,49,30.35,29.95,9,2,15,0.02
2013-2-7,43,31,16,30,23,12,90,72,55,30.33,29.93,10,2,18,0.00
2013-2-8,38,31,22,36,28,19,97,87,78,30.22,29.77,15,6,25,0.25
2013-2-9,32,25,21,21,19,16,94,78,56,30.44,30.22,10,2,20,0.00
2013-2-10,48,35,20,28,21,15,86,60,35,30.36,29.89,11,3,20,0.00
2013-2-11,52,42,35,46,36,26,100,79,61,29.89,29.64,16,8,31,0.01
2013-2-12,35,32,24,27,25,23,94,78,70,30.07,29.89,12,4,20,0.00
2013-2-13,35,29,23,29,26,22,100,88,74,29.94,29.73,6,1,9,0.00
2013-2-14,40,33,24,37,30,23,96,91,78,29.91,29.83,14,5,22,0.03
2013-2-15,37,32,24,30,27,21,91,79,69,30.09,29.89,13,3,22,0.00
2013-2-16,29,24,17,23,19,14,97,81,55,30.08,29.97,7,1,12,0.08
2013-2-17,22,18,10,18,13,6,95,80,56,30.28,29.97,11,2,20,0.05
2013-2-18,43,26,8,32,16,5,91,70,53,30.31,29.82,11,4,22,0.00
2013-2-19,45,34,20,40,29,13,95,84,61,29.95,29.61,19,8,32,0.27
2013-2-20,21,19,18,18,15,12,93,84,75,30.23,29.95,14,5,20,0.01
2013-2-21,23,20,16,18,16,13,92,84,73,30.39,30.21,6,2,10,0.00
2013-2-22,36,29,18,35,26,14,97,89,75,30.34,29.98,11,3,18,0.02
2013-2-23,38,35,29,35,32,26,97,88,75,30.00,29.86,9,2,14,0.00
2013-2-24,33,30,27,27,25,22,92,82,71,30.15,29.88,10,2,17,0.00
2013-2-25,42,32,23,30,26,22,98,82,55,30.25,30.08,6,1,12,0.00
2013-2-26,40,35,29,36,30,24,97,84,64,30.10,29.55,11,4,22,0.84
2013-2-27,43,38,33,40,37,32,98,95,86,29.65,29.52,11,4,17,0.23
2013-2-28,35,33,31,34,32,30,98,95,89,29.84,29.58,8,3,13,0.07
2013-3-1,31,28,26,30,26,23,97,89,83,30.01,29.84,7,3,12,0.00
2013-3-2,27,26,23,25,23,21,93,89,84,30.00,29.97,8,2,12,0.00
2013-3-3,28,25,22,24,22,19,95,89,79,30.04,29.95,9,3,15,0.00
2013-3-4,36,27,20,25,20,18,94,78,52,30.14,30.03,10,2,18,0.02
2013-3-5,42,29,18,28,22,16,96,77,50,30.13,29.72,7,2,12,0.00
2013-3-6,44,37,33,32,30,27,94,75,56,30.14,29.72,11,2,20,0.00
2013-3-7,41,35,31,34,32,28,95,88,71,30.34,30.13,9,2,17,0.00
2013-3-8,40,33,30,32,29,27,94,86,69,30.44,30.33,8,2,13,0.00
2013-3-9,55,39,23,36,30,22,99,73,45,30.44,30.14,8,2,12,0.01
2013-3-10,69,57,46,42,35,28,62,44,35,30.14,29.89,13,5,20,0.01
2013-3-11,59,55,45,49,40,35,97,60,42,30.07,29.58,15,5,25,0.63
2013-3-12,47,38,34,43,33,27,94,80,71,29.98,29.70,14,5,22,0.05
2013-3-13,35,30,27,30,26,18,96,83,62,30.13,29.90,16,5,25,0.02
2013-3-14,36,30,26,24,21,18,80,69,54,30.23,30.12,11,5,20,0.00
2013-3-15,43,35,27,36,30,21,100,81,71,30.14,29.84,14,3,23,0.04
2013-3-16,35,32,28,34,31,25,98,95,88,30.01,29.67,7,1,13,0.24
2013-3-17,34,30,26,28,24,20,94,80,59,30.24,30.00,8,1,12,0.12
2013-3-18,38,33,26,38,30,20,100,89,73,30.23,29.65,12,5,23,0.42
2013-3-19,40,33,28,40,27,21,99,78,67,29.94,29.66,18,8,32,0.02
2013-3-20,32,29,24,26,22,20,93,76,64,29.95,29.88,15,5,21,0.01
2013-3-21,28,24,16,25,19,12,95,82,70,29.91,29.86,11,5,20,0.00
2013-3-22,31,27,21,26,24,18,97,88,74,30.03,29.90,10,4,16,0.09
2013-3-23,40,28,16,30,23,14,97,82,60,30.09,30.01,8,1,12,0.00
2013-3-24,37,31,22,29,25,21,97,79,60,30.05,29.54,10,2,15,0.00
2013-3-25,38,34,32,35,32,26,100,93,66,29.80,29.47,10,2,20,0.36
2013-3-26,39,35,31,35,33,31,98,92,80,30.08,29.80,10,2,18,0.02
2013-3-27,42,36,33,34,32,29,98,84,65,30.16,30.06,12,4,21,0.08
2013-3-28,42,37,34,35,33,32,98,86,70,30.27,30.14,8,3,17,0.02
2013-3-29,51,41,31,35,31,26,88,69,43,30.26,30.18,8,2,14,0.00
2013-3-30,56,41,26,32,27,24,92,62,31,30.25,30.00,12,2,18,0.00
2013-3-31,51,47,43,46,36,24,93,69,43,30.00,29.66,12,3,23,0.07
2013-4-1,46,38,32,43,27,16,93,66,40,30.04,29.64,12,6,21,0.02
2013-4-2,38,32,25,27,20,14,84,64,37,30.19,30.04,13,4,21,0.00
2013-4-3,37,31,25,23,19,15,80,63,43,30.44,30.19,11,3,18,0.00
2013-4-4,55,37,20,23,17,13,86,52,21,30.41,29.96,8,2,13,0.00
2013-4-5,48,38,29,35,26,17,78,61,41,30.21,29.92,10,3,18,0.00
2013-4-6,56,40,23,26,21,16,90,53,21,30.29,29.94,12,3,21,0.00
2013-4-7,70,58,43,49,38,18,82,50,25,30.00,29.79,18,6,30,0.00
2013-4-8,72,55,34,54,45,33,97,71,47,30.03,29.83,14,3,23,0.00
2013-4-9,77,63,46,59,52,44,95,69,50,30.08,29.82,12,4,20,0.12
2013-4-10,75,60,45,66,55,44,99,85,55,29.90,29.74,28,3,46,1.38
2013-4-11,54,48,43,52,47,43,100,97,91,29.90,29.57,10,2,20,0.25
2013-4-12,58,49,40,58,46,36,99,90,73,29.83,29.44,18,5,29,0.42
2013-4-13,45,42,35,39,35,30,91,78,69,30.02,29.83,14,5,23,0.00
2013-4-14,55,42,31,40,34,29,94,75,51,30.16,29.98,8,1,15,0.00
2013-4-15,70,60,47,53,47,37,76,63,50,30.05,29.96,14,5,23,0.00
2013-4-16,72,60,50,62,54,49,98,82,68,30.17,29.96,12,4,24,0.10
2013-4-17,68,55,46,53,46,40,99,73,41,30.27,30.05,8,2,12,0.01
2013-4-18,84,72,58,65,59,53,89,67,41,30.05,29.64,16,7,25,0.00
2013-4-19,75,57,41,61,47,30,94,70,53,29.81,29.35,17,9,29,0.18
2013-4-20,43,39,32,34,30,24,89,71,58,30.42,29.81,14,6,29,0.00
2013-4-21,51,39,28,33,28,25,94,68,36,30.63,30.42,9,1,12,0.01
2013-4-22,64,50,35,42,33,27,87,53,36,30.48,30.24,10,3,15,0.00
2013-4-23,72,57,42,45,38,29,75,50,33,30.24,29.88,13,4,20,0.00
2013-4-24,63,56,40,57,48,39,98,77,41,29.88,29.67,16,5,22,0.68
2013-4-25,54,46,36,41,38,33,100,76,48,30.35,30.18,16,4,26,0.06
2013-4-26,59,45,31,42,34,31,100,71,36,30.48,30.34,8,1,10,0.01
2013-4-27,73,55,35,44,38,33,92,59,26,30.40,30.11,8,1,14,0.00
2013-4-28,60,56,53,55,48,39,97,78,46,30.11,29.89,12,4,20,0.32
2013-4-29,65,57,52,59,55,51,96,92,76,29.98,29.88,8,3,14,0.14
2013-4-30,74,63,54,60,55,52,99,78,52,30.13,29.98,9,3,17,0.00
2013-5-1,78,65,53,60,53,42,90,66,42,30.25,30.12,9,3,13,0.00
2013-5-2,77,66,55,52,41,33,56,41,20,30.31,30.15,8,3,16,0.00
2013-5-3,76,65,54,48,43,35,62,45,29,30.20,30.09,15,4,24,0.00
2013-5-4,71,61,50,48,44,37,76,54,30,30.16,30.05,11,3,18,0.00
2013-5-5,76,62,46,46,39,27,87,48,19,30.11,29.97,12,2,20,0.00
2013-5-6,73,61,48,55,46,30,78,58,34,30.06,29.95,10,3,16,0.00
2013-5-7,75,64,54,59,55,51,93,75,47,30.01,29.92,10,1,15,0.00
2013-5-8,68,62,57,60,56,54,93,82,65,29.96,29.90,7,1,12,0.02
2013-5-9,77,64,54,61,55,47,99,76,36,29.96,29.88,5,1,11,0.00
2013-5-10,75,64,59,65,58,46,99,82,61,29.94,29.73,16,3,31,0.42
2013-5-11,60,50,45,60,49,44,100,94,87,29.83,29.71,7,2,18,0.14
2013-5-12,50,43,35,45,36,32,98,78,52,30.07,29.82,12,4,23,0.06
2013-5-13,51,42,33,37,32,27,97,72,45,30.18,30.05,9,2,20,0.09
2013-5-14,58,47,31,45,36,29,96,69,55,30.17,29.85,12,3,20,0.05
2013-5-15,83,67,51,64,54,40,83,65,46,29.85,29.67,15,3,31,0.00
2013-5-16,79,66,52,57,50,44,97,63,30,29.96,29.72,8,1,12,0.00
2013-5-17,78,63,47,56,48,44,94,63,35,30.11,29.95,6,1,13,0.00
2013-5-18,84,67,51,62,53,46,94,64,30,30.12,29.99,8,1,12,0.00
2013-5-19,80,70,60,67,62,58,93,78,60,30.05,29.91,9,2,14,0.00
2013-5-20,86,74,62,72,66,60,96,78,54,29.97,29.82,8,2,13,0.00
2013-5-21,86,77,68,72,68,65,97,76,50,29.88,29.74,10,2,20,0.00
2013-5-22,85,76,68,68,64,59,87,69,49,29.79,29.66,12,3,22,0.01
2013-5-23,74,63,46,66,60,44,98,90,66,29.93,29.69,10,2,18,0.69
2013-5-24,46,43,36,44,39,34,97,85,73,30.30,29.93,10,3,21,0.00
2013-5-25,60,47,32,45,38,32,99,74,45,30.34,30.25,9,2,17,0.00
2013-5-26,65,51,34,46,40,33,99,69,36,30.30,30.22,8,1,14,0.00
2013-5-27,62,52,37,51,43,36,98,75,47,30.27,30.08,6,1,12,0.01
2013-5-28,78,66,52,72,61,50,99,87,67,30.08,29.88,7,2,14,0.60
2013-5-29,85,76,68,71,65,61,79,69,53,30.01,29.91,12,3,19,0.00
2013-5-30,86,76,66,73,66,62,91,71,47,30.11,30.00,9,2,14,0.00
2013-5-31,87,76,67,70,66,63,96,74,48,30.04,29.90,12,2,17,0.09
2013-6-1,84,75,66,72,68,64,97,81,64,29.94,29.70,13,4,27,0.02
2013-6-2,76,70,62,69,64,57,100,82,60,29.87,29.69,14,3,24,1.19
2013-6-3,64,57,45,57,49,42,91,76,47,30.07,29.86,7,2,12,0.00
2013-6-4,69,56,42,55,47,41,100,76,47,30.16,30.07,7,1,12,0.00
2013-6-5,80,62,46,62,52,45,99,72,39,30.14,29.91,6,1,10,0.00
2013-6-6,67,62,56,67,61,52,100,96,79,29.91,29.74,7,1,11,0.62
2013-6-7,61,57,55,59,56,55,100,97,90,29.86,29.78,6,1,12,0.01
2013-6-8,69,61,56,60,57,55,99,86,65,30.08,29.85,7,0,12,0.01
2013-6-9,79,66,52,65,59,52,100,80,53,30.14,29.96,4,1,9,0.00
2013-6-10,73,69,64,71,67,63,99,94,79,29.96,29.70,8,1,14,0.44
2013-6-11,75,68,63,67,64,62,99,91,72,29.84,29.72,7,1,14,0.01
2013-6-12,78,70,62,71,67,61,100,90,74,29.87,29.65,3,0,8,0.00
2013-6-13,71,64,57,69,63,56,99,95,88,29.80,29.43,12,2,24,0.49
2013-6-14,72,62,54,65,58,52,100,89,67,30.05,29.79,6,1,12,0.01
2013-6-15,78,64,48,62,54,47,100,75,43,30.11,29.96,8,1,18,0.01
2013-6-16,79,69,64,70,65,60,98,87,70,29.98,29.79,10,3,20,0.06
2013-6-17,82,71,63,69,64,59,100,81,46,29.91,29.85,7,1,14,0.02
2013-6-18,76,66,57,67,60,51,96,80,66,29.98,29.83,7,2,16,0.00
2013-6-19,75,62,48,58,52,47,98,71,46,30.15,29.98,7,1,14,0.00
2013-6-20,80,65,49,63,54,48,99,71,44,30.22,30.14,6,1,12,0.00
2013-6-21,85,70,53,63,57,50,94,66,39,30.26,30.14,4,0,7,0.00
2013-6-22,88,77,63,70,63,57,82,64,46,30.16,30.02,8,2,15,0.00
2013-6-23,89,79,68,71,66,64,91,67,45,30.10,30.00,8,2,14,0.00
2013-6-24,88,78,68,70,65,62,82,64,42,30.10,29.95,9,2,17,0.00
2013-6-25,88,75,66,73,67,63,93,78,55,30.00,29.84,9,2,20,0.73
2013-6-26,83,73,66,71,67,64,94,83,59,29.92,29.78,7,1,11,0.33
2013-6-27,77,70,67,70,66,64,94,89,70,29.79,29.64,6,0,12,1.62
2013-6-28,80,70,64,68,64,61,95,84,59,29.64,29.49,6,1,11,0.02
2013-6-29,77,67,61,67,63,59,94,87,65,29.69,29.52,4,0,8,0.15
2013-6-30,78,69,61,69,64,59,96,85,68,29.87,29.68,5,1,9,0.01
2013-7-1,72,67,63,68,64,61,94,91,86,29.98,29.84,5,0,8,0.05
2013-7-2,84,72,64,70,66,61,93,81,58,30.04,29.93,5,0,8,0.01
2013-7-3,87,75,66,72,68,64,94,80,52,30.13,30.04,7,1,14,0.06
2013-7-4,80,74,69,71,68,66,93,82,66,30.17,30.11,8,1,13,0.02
2013-7-5,80,73,68,71,68,66,93,85,70,30.14,30.07,7,1,15,0.06
2013-7-6,86,75,69,74,69,67,94,84,60,30.15,30.01,8,1,13,0.14
2013-7-7,80,74,68,71,67,65,93,81,63,30.08,29.97,8,1,14,0.20
2013-7-8,86,73,64,71,66,61,94,81,54,30.09,30.00,7,1,12,0.12
2013-7-9,87,75,68,76,70,66,93,85,62,30.06,29.91,13,2,25,0.08
2013-7-10,86,72,65,78,69,63,95,91,73,29.95,29.77,11,2,20,2.46
2013-7-11,76,68,62,64,61,56,95,78,55,30.02,29.89,5,1,12,0.09
2013-7-12,80,68,57,66,60,54,95,77,52,30.12,30.02,6,1,12,0.00
2013-7-13,83,72,60,69,64,57,92,77,56,30.22,30.10,6,0,10,0.00
2013-7-14,88,77,66,74,69,64,94,78,56,30.26,30.20,8,1,12,0.00
2013-7-15,92,80,69,77,72,67,93,78,54,30.31,30.22,5,0,8,0.00
2013-7-16,90,78,71,79,74,69,95,87,64,30.29,30.21,4,0,8,0.21
2013-7-17,91,80,71,80,74,70,95,81,58,30.27,30.12,4,0,12,0.09
2013-7-18,92,81,73,79,74,70,93,79,58,30.16,29.98,5,0,12,0.00
2013-7-19,90,81,74,76,72,68,90,75,55,29.99,29.80,10,2,21,0.00
2013-7-20,79,72,68,72,68,65,94,86,73,29.91,29.79,9,1,16,0.96
2013-7-21,84,73,65,72,66,63,95,81,54,29.96,29.89,3,0,6,0.00
2013-7-22,79,69,63,71,66,61,94,88,72,29.95,29.75,4,0,6,0.16
2013-7-23,82,71,64,71,66,62,95,86,63,29.77,29.65,8,0,12,0.50
2013-7-24,70,63,55,63,55,51,89,75,58,30.03,29.77,0,0,0,0.00
2013-7-25,76,62,49,57,52,47,94,72,43,30.11,30.03,6,0,10,0.00
2013-7-26,81,66,52,61,55,50,95,71,40,30.11,29.98,0,0,0,0.00
2013-7-27,72,66,62,67,62,57,92,86,78,29.98,29.81,0,0,0,0.50
2013-7-28,70,64,59,61,56,50,94,78,54,30.02,29.83,0,0,0,0.02
2013-7-29,71,63,55,58,55,52,91,75,52,30.19,30.02,0,0,0,0.00
2013-7-30,78,65,53,63,58,51,95,78,49,30.25,30.15,0,0,0,0.00
2013-7-31,76,67,58,65,61,55,94,82,64,30.17,29.93,0,0,0,0.00
2013-8-1,79,70,62,68,63,58,94,81,56,29.94,29.84,0,0,0,0.24
2013-8-2,74,66,59,63,59,56,93,79,56,29.98,29.89,0,0,0,0.31
2013-8-3,78,69,59,66,61,52,94,77,47,30.00,29.91,0,0,0,0.00
2013-8-4,74,65,57,60,57,54,93,78,53,30.12,29.99,0,0,0,0.01
2013-8-5,72,62,50,59,54,48,95,78,48,30.14,30.02,0,0,0,0.00
2013-8-6,78,68,57,65,57,53,89,71,48,30.04,29.96,0,0,0,0.00
2013-8-7,79,70,64,69,64,58,92,82,68,29.97,29.88,0,0,5,0.33
2013-8-8,84,72,68,77,71,66,100,94,75,29.97,29.88,3,0,8,0.33
2013-8-9,80,70,59,71,66,58,100,90,59,30.02,29.89,0,0,0,0.04
2013-8-10,79,67,58,67,61,57,98,81,60,30.12,30.01,0,0,0,0.00
2013-8-11,81,69,61,66,62,57,96,79,53,30.14,30.03,0,0,0,0.00
2013-8-12,78,69,60,70,65,59,100,88,70,30.06,29.83,0,0,0,0.00
2013-8-13,72,67,54,68,62,51,98,85,67,29.98,29.78,0,0,0,0.00
2013-8-14,70,59,51,59,54,50,97,83,60,30.17,29.98,0,0,0,0.00
2013-8-15,73,60,48,59,53,48,100,81,52,30.21,30.12,0,0,0,0.01
2013-8-16,76,63,52,60,55,51,100,78,48,30.20,30.14,0,0,0,0.00
2013-8-17,79,65,53,63,58,52,99,79,49,30.26,30.19,0,0,0,0.00
2013-8-18,76,66,58,66,62,56,95,85,68,30.22,30.13,0,0,0,0.00
2013-8-19,82,70,62,69,65,60,98,86,52,30.15,30.06,0,0,0,0.00
2013-8-20,85,70,58,70,63,57,99,81,48,30.17,30.09,0,0,0,0.00
2013-8-21,86,72,60,69,64,59,99,79,45,30.19,30.04,0,0,0,0.01
2013-8-22,84,73,65,74,68,64,96,85,66,30.08,29.96,0,0,0,0.01
2013-8-23,82,71,57,67,62,55,98,76,43,30.17,29.99,0,0,0,0.01
2013-8-24,81,65,53,63,57,52,98,77,43,30.32,30.17,0,0,0,0.12
2013-8-25,84,68,53,66,60,52,100,76,44,30.36,30.21,0,0,0,0.00
2013-8-26,85,74,64,70,64,59,94,74,50,30.23,29.98,0,0,2,0.12
2013-8-27,82,73,68,75,70,67,98,91,75,30.01,29.89,8,1,14,0.54
2013-8-28,77,72,70,75,71,69,98,96,91,29.95,29.81,5,0,8,1.11
2013-8-29,86,74,68,74,70,66,98,87,58,30.05,29.94,3,0,5,0.00
2013-8-30,86,74,62,73,68,61,98,83,57,30.01,29.80,1,0,2,0.00
2013-8-31,87,77,69,74,70,68,95,82,61,29.82,29.74,6,0,12,0.00
2013-9-1,86,74,66,74,70,65,97,88,63,29.81,29.73,4,0,8,0.06
2013-9-2,84,72,64,73,68,62,98,89,67,29.84,29.73,5,0,9,0.15
2013-9-3,66,62,56,63,58,55,95,87,78,30.04,29.84,2,0,4,0.00
2013-9-4,79,64,54,63,58,53,99,81,51,30.12,30.03,5,1,12,0.01
2013-9-5,72,63,51,61,55,48,94,75,48,30.23,30.04,4,1,9,0.00
2013-9-6,74,58,44,56,48,43,98,76,37,30.31,30.14,4,0,7,0.00
2013-9-7,81,64,48,66,56,46,96,78,50,30.14,29.93,5,0,8,0.00
2013-9-8,76,67,53,67,61,51,96,83,56,30.08,29.90,4,0,9,0.00
2013-9-9,79,65,52,72,61,50,95,87,75,30.10,29.99,4,0,7,0.00
2013-9-10,93,80,71,78,73,68,92,80,56,30.07,29.99,5,1,9,0.00
2013-9-11,91,81,74,77,73,70,94,79,52,30.08,29.95,4,1,10,0.00
2013-9-12,75,69,60,71,66,58,97,92,84,29.96,29.80,3,0,14,0.84
2013-9-13,63,57,50,59,53,48,97,88,64,30.07,29.84,6,1,14,0.19
2013-9-14,66,54,47,51,47,42,94,78,52,30.18,30.06,4,0,7,0.01
2013-9-15,68,56,45,57,51,44,96,83,58,30.20,30.07,5,0,8,0.02
2013-9-16,68,59,49,60,55,48,97,88,69,30.34,30.11,5,1,11,0.05
2013-9-17,70,53,40,50,44,39,99,76,34,30.44,30.27,5,1,9,0.01
2013-9-18,76,60,46,59,51,42,87,74,51,30.27,30.10,5,1,10,0.00
2013-9-19,74,65,60,66,62,56,94,88,73,30.13,30.00,4,1,8,0.00
2013-9-20,77,69,61,71,66,59,96,90,81,30.03,29.77,6,1,12,0.00
2013-9-21,72,63,54,69,62,53,99,94,79,29.80,29.65,5,0,10,1.16
2013-9-22,61,55,51,55,51,45,97,86,60,30.06,29.80,4,0,7,0.02
2013-9-23,59,52,43,50,47,41,95,84,64,30.19,30.05,2,0,4,0.00
2013-9-24,70,52,38,54,47,37,98,84,53,30.17,30.00,4,0,7,0.01
2013-9-25,73,55,44,60,50,42,98,86,59,30.03,29.92,4,0,8,0.00
2013-9-26,74,57,46,59,51,45,98,82,44,30.13,29.98,3,0,5,0.01
2013-9-27,73,59,48,57,52,47,97,81,49,30.23,30.13,3,0,8,0.00
2013-9-28,75,61,51,60,54,49,96,79,53,30.26,30.14,5,1,8,0.01
2013-9-29,72,62,52,62,56,49,91,81,68,30.14,30.00,5,1,10,0.00
2013-9-30,67,62,59,61,59,57,95,89,79,30.03,29.97,4,0,8,0.00
2013-10-1,77,65,56,65,59,55,97,84,59,30.08,29.98,4,1,9,0.00
2013-10-2,80,67,59,70,62,58,95,85,63,30.09,30.01,3,0,5,0.00
2013-10-3,80,65,55,70,62,54,97,91,71,30.09,29.99,5,1,9,0.18
2013-10-4,80,68,65,70,66,64,97,91,64,30.07,30.00,7,1,12,0.10
2013-10-5,76,69,64,71,67,63,98,93,77,30.07,29.95,4,1,7,0.07
2013-10-6,82,73,67,70,66,62,96,81,59,29.96,29.70,10,2,17,0.02
2013-10-7,67,55,49,64,50,44,96,83,66,30.14,29.71,10,2,17,0.68
2013-10-8,68,54,44,52,47,43,98,79,47,30.33,30.13,4,0,7,0.00
2013-10-9,71,55,45,50,45,42,92,74,38,30.36,30.25,6,0,10,0.00
2013-10-10,71,54,43,54,45,40,95,75,37,30.26,30.12,2,0,4,0.00
2013-10-11,74,57,45,56,49,44,97,79,44,30.16,30.07,4,0,8,0.00
2013-10-12,76,61,48,63,55,45,94,81,63,30.15,30.08,5,0,7,0.00
2013-10-13,68,63,60,62,60,57,96,88,78,30.28,30.15,3,0,6,0.25
2013-10-14,66,57,46,59,51,43,96,81,58,30.35,30.25,4,1,8,0.00
2013-10-15,67,57,44,61,54,42,96,89,78,30.26,29.96,6,1,9,0.00
2013-10-16,65,60,51,62,58,50,97,93,82,29.96,29.80,7,1,13,0.52
2013-10-17,59,50,44,52,48,44,98,92,73,29.92,29.76,7,1,13,0.48
2013-10-18,62,52,44,48,45,42,95,77,52,30.01,29.88,10,2,16,0.00
2013-10-19,50,47,46,44,43,42,86,85,78,29.96,29.72,5,0,7,0.00
2013-10-20,58,49,38,44,42,36,99,76,54,30.01,29.92,8,2,14,0.00
2013-10-21,63,54,45,50,42,39,85,65,44,30.02,29.85,8,2,14,0.00
2013-10-22,52,44,38,48,36,30,94,75,48,29.97,29.85,9,2,16,0.14
2013-10-23,46,40,35,41,35,32,94,85,67,29.96,29.81,6,1,12,0.19
2013-10-24,43,36,32,38,34,31,96,92,73,30.18,29.94,7,1,13,0.10
2013-10-25,47,39,34,39,34,30,97,83,56,30.35,30.17,7,1,13,0.04
2013-10-26,46,40,34,39,31,28,93,70,53,30.25,29.89,12,3,22,0.00
2013-10-27,49,40,34,39,35,32,96,82,54,30.12,29.99,7,1,13,0.01
2013-10-28,57,43,33,43,37,30,94,81,56,30.36,30.11,4,1,7,0.00
2013-10-29,56,42,32,43,37,30,97,83,55,30.44,30.28,4,0,6,0.00
2013-10-30,65,51,36,52,43,34,96,76,45,30.28,30.08,6,1,8,0.00
2013-10-31,66,60,55,59,57,51,96,90,74,30.08,29.36,11,4,22,0.57
2013-11-1,66,55,50,59,48,42,93,78,64,29.70,29.26,13,4,25,0.22
2013-11-2,50,45,42,46,44,40,96,93,88,30.02,29.67,3,1,7,0.04
2013-11-3,46,38,29,41,33,25,99,84,61,30.52,30.02,4,1,8,0.00
2013-11-4,45,36,26,27,23,18,89,62,36,30.61,30.45,7,1,16,0.01
2013-11-5,59,48,39,40,34,26,66,57,46,30.50,30.32,8,2,12,0.00
2013-11-6,68,56,45,57,46,31,96,70,54,30.32,29.88,13,4,20,0.28
2013-11-7,58,43,36,56,38,29,95,84,65,30.13,29.89,11,3,16,0.27
2013-11-8,41,36,29,34,31,27,94,83,65,30.32,30.10,9,2,15,0.06
2013-11-9,56,45,29,40,32,27,91,63,41,30.30,29.93,10,5,18,0.00
2013-11-10,53,46,44,41,35,29,75,65,56,30.25,29.94,12,5,25,0.00
2013-11-11,46,41,32,39,33,30,94,75,54,30.24,30.04,10,4,20,0.08
2013-11-12,35,31,28,30,27,23,95,86,70,30.52,30.20,6,1,13,0.19
2013-11-13,37,32,28,26,23,21,90,70,57,30.57,30.33,9,4,13,0.01
2013-11-14,49,38,30,26,22,20,75,53,33,30.33,30.16,10,4,15,0.03
2013-11-15,54,46,39,33,25,20,62,45,26,30.19,30.11,10,2,16,0.00
2013-11-16,59,51,39,50,43,32,87,74,62,30.24,29.98,10,2,17,0.00
2013-11-17,62,57,53,58,54,44,94,87,69,29.99,29.43,23,6,38,0.83
2013-11-18,54,45,36,45,36,26,78,69,59,30.11,29.56,16,6,26,0.00
2013-11-19,38,35,27,29,27,24,89,72,61,30.46,30.11,5,1,12,0.00
2013-11-20,46,35,23,26,20,14,93,60,32,30.52,30.38,13,2,23,0.00
2013-11-21,45,40,36,41,31,16,96,73,43,30.45,30.23,5,1,8,0.07
2013-11-22,50,44,36,49,43,30,97,93,82,30.31,30.11,11,1,17,0.18
2013-11-23,35,29,21,30,23,9,91,79,60,30.41,30.21,11,2,17,0.00
2013-11-24,24,21,16,18,14,10,86,73,62,30.58,30.41,11,4,19,0.00
2013-11-25,35,26,16,25,15,11,84,65,47,30.54,30.23,13,4,21,0.00
2013-11-26,34,33,32,32,30,25,93,89,73,30.24,29.84,8,2,12,0.35
2013-11-27,34,29,24,32,25,19,93,87,73,30.15,29.80,6,1,11,0.05
2013-11-28,27,24,17,22,18,13,86,78,66,30.48,30.15,8,3,13,0.00
2013-11-29,34,27,22,24,21,17,91,79,57,30.71,30.48,4,0,5,0.00
2013-11-30,38,30,24,27,23,19,84,74,63,30.67,30.24,10,3,15,0.00
2013-12-1,41,36,32,31,29,26,88,76,66,30.24,30.00,8,2,12,0.00
2013-12-2,40,35,30,35,32,28,94,87,78,30.00,29.89,3,0,4,0.00
2013-12-3,49,39,29,41,35,28,95,86,69,29.97,29.91,4,1,7,0.00
2013-12-4,57,49,40,48,43,37,92,80,72,29.99,29.83,9,2,20,0.00
2013-12-5,62,52,35,58,47,33,92,82,65,30.10,29.79,10,4,23,0.08
2013-12-6,35,33,30,33,30,26,95,89,77,30.26,30.08,5,1,8,0.21
2013-12-7,27,23,19,22,18,14,91,80,71,30.65,30.44,6,2,10,0.00
2013-12-8,29,24,19,26,19,14,89,79,65,30.65,30.11,9,1,14,0.00
2013-12-9,35,32,28,34,28,20,96,85,73,30.17,29.97,14,4,22,0.03
2013-12-10,28,25,22,20,15,9,83,66,46,30.29,30.04,13,6,24,0.00
2013-12-11,25,22,19,21,17,12,91,80,64,30.43,30.29,9,4,15,0.02
2013-12-12,20,16,10,16,7,3,88,69,48,30.51,30.29,11,4,17,0.04
2013-12-13,30,23,17,20,14,6,86,67,57,30.33,30.25,8,2,12,0.00
2013-12-14,35,30,23,33,27,19,95,88,73,30.31,29.68,5,1,12,0.35
2013-12-15,35,26,16,34,22,11,96,87,75,30.09,29.67,14,5,25,0.03
2013-12-16,23,18,13,18,12,9,85,75,62,30.23,30.07,8,2,10,0.36
2013-12-17,28,26,22,26,22,18,94,86,77,30.09,29.97,8,3,12,0.11
2013-12-18,29,26,24,24,21,18,90,81,72,30.21,30.07,9,4,13,0.00
2013-12-19,45,38,26,35,27,19,75,65,58,30.10,30.00,8,3,15,0.00
2013-12-20,54,48,43,52,41,31,95,80,55,30.00,29.84,9,4,15,0.17
2013-12-21,60,51,42,59,50,41,98,95,86,29.85,29.53,11,3,21,0.99
2013-12-22,64,56,42,60,50,39,97,83,63,29.97,29.43,20,6,31,0.36
2013-12-23,42,35,30,39,30,21,94,82,67,30.33,29.97,8,3,13,0.09
2013-12-24,30,21,16,24,16,12,88,81,71,30.58,30.29,14,4,21,0.00
2013-12-25,28,21,15,22,14,11,87,75,63,30.57,30.23,9,3,15,0.00
2013-12-26,32,29,21,28,22,16,92,78,62,30.38,30.14,15,4,22,0.04
2013-12-27,41,34,25,31,26,20,79,73,66,30.39,30.23,8,3,12,0.00
2013-12-28,51,43,35,36,32,28,79,65,52,30.23,30.03,10,4,16,0.00
2013-12-29,43,41,31,41,33,26,99,76,52,30.02,29.72,9,2,12,0.14
2013-12-30,31,22,19,28,17,12,91,80,72,30.28,29.91,6,2,12,0.00
2013-12-31,22,20,16,20,15,10,90,80,69,30.37,30.11,12,4,22,0.06
2014-1-1,26,23,20,21,19,16,88,84,80,30.41,30.17,4,1,6,0.04
2014-1-2,22,18,10,18,14,6,88,86,83,30.18,29.86,9,2,17,0.23